createdAt,value
2023-03-27T00:00:44.136Z,1.47
2023-03-27T00:03:15.761Z,1.60
2023-03-27T00:05:45.960Z,1.50
2023-03-27T00:08:15.838Z,1.93
2023-03-27T00:10:47.220Z,1.30
2023-03-27T00:13:17.019Z,1.53
2023-03-27T00:15:47.153Z,1.47
2023-03-27T00:18:17.624Z,2.20
2023-03-27T00:20:47.476Z,1.43
2023-03-27T00:23:19.879Z,1.30
2023-03-27T00:25:50.808Z,1.22
2023-03-27T00:28:21.401Z,1.70
2023-03-27T00:30:51.251Z,2.00
2023-03-27T00:33:21.330Z,1.23
2023-03-27T00:35:52.428Z,1.10
2023-03-27T00:38:22.883Z,1.33
2023-03-27T00:40:54.950Z,1.37
2023-03-27T00:43:36.806Z,1.20
2023-03-27T00:46:10.992Z,1.10
2023-03-27T00:48:41.239Z,1.60
2023-03-27T00:51:11.331Z,1.43
2023-03-27T00:53:42.533Z,1.63
2023-03-27T00:56:13.476Z,1.70
2023-03-27T00:58:49.611Z,1.47
2023-03-27T01:03:51.475Z,1.07
2023-03-27T01:06:22.628Z,1.90
2023-03-27T01:08:53.179Z,1.50
2023-03-27T01:11:40.776Z,1.70
2023-03-27T01:14:29.137Z,1.65
2023-03-27T01:17:24.212Z,1.47
2023-03-27T01:20:24.594Z,1.57
2023-03-27T01:23:00.715Z,2.07
2023-03-27T01:25:48.255Z,1.55
2023-03-27T01:28:36.882Z,1.30
2023-03-27T01:31:28.977Z,1.70
2023-03-27T01:34:04.832Z,1.70
2023-03-27T01:36:52.172Z,1.40
2023-03-27T01:39:25.285Z,1.47
2023-03-27T01:42:00.727Z,1.33
2023-03-27T01:44:54.442Z,1.83
2023-03-27T01:47:27.363Z,1.40
2023-03-27T01:50:00.251Z,1.03
2023-03-27T01:52:33.197Z,1.90
2023-03-27T01:55:07.538Z,1.10
2023-03-27T01:57:52.991Z,1.30
2023-03-27T02:00:26.983Z,1.20
2023-03-27T02:03:05.796Z,1.60
2023-03-27T02:05:38.351Z,1.33
2023-03-27T02:08:18.359Z,1.37
2023-03-27T02:10:51.264Z,1.20
2023-03-27T02:13:26.936Z,1.40
2023-03-27T02:15:58.989Z,1.00
2023-03-27T02:18:31.809Z,1.10
2023-03-27T02:21:03.531Z,0.90
2023-03-27T02:23:36.009Z,0.90
2023-03-27T02:26:07.356Z,1.40
2023-03-27T02:29:01.583Z,0.80
2023-03-27T02:32:05.088Z,0.83
2023-03-27T02:34:49.263Z,0.90
2023-03-27T02:37:43.225Z,0.60
2023-03-27T02:40:43.785Z,0.67
2023-03-27T02:43:43.793Z,0.90
2023-03-27T02:46:21.370Z,0.70
2023-03-27T02:48:55.007Z,0.90
2023-03-27T02:51:40.320Z,1.00
2023-03-27T02:54:14.617Z,0.86
2023-03-27T02:56:51.723Z,0.60
2023-03-27T02:59:30.770Z,0.85
2023-03-27T03:02:01.508Z,0.90
2023-03-27T03:04:40.445Z,0.83
2023-03-27T03:07:18.555Z,0.63
2023-03-27T03:09:48.673Z,0.75
2023-03-27T03:12:18.561Z,0.50
2023-03-27T03:14:48.637Z,0.80
2023-03-27T03:17:18.948Z,1.00
2023-03-27T03:19:49.380Z,0.93
2023-03-27T03:22:19.370Z,1.17
2023-03-27T03:24:49.215Z,0.80
2023-03-27T03:27:21.107Z,1.27
2023-03-27T03:29:56.776Z,1.20
2023-03-27T03:32:30.219Z,1.05
2023-03-27T03:35:01.524Z,1.30
2023-03-27T03:37:34.697Z,1.43
2023-03-27T03:40:09.896Z,1.47
2023-03-27T03:42:53.463Z,1.27
2023-03-27T03:45:25.314Z,1.32
2023-03-27T03:47:56.040Z,1.17
2023-03-27T03:50:26.017Z,1.20
2023-03-27T03:52:55.845Z,1.17
2023-03-27T03:55:25.705Z,1.10
2023-03-27T03:57:55.937Z,1.17
2023-03-27T04:00:28.258Z,1.40
2023-03-27T04:02:58.814Z,1.43
2023-03-27T04:05:28.971Z,1.50
2023-03-27T04:08:00.836Z,1.70
2023-03-27T04:10:32.109Z,1.13
2023-03-27T04:13:03.934Z,1.70
2023-03-27T04:15:36.395Z,1.60
2023-03-27T04:18:26.066Z,1.47
2023-03-27T04:20:57.943Z,1.80
2023-03-27T04:23:30.049Z,1.60
2023-03-27T04:26:02.033Z,1.47
2023-03-27T04:28:37.227Z,1.50
2023-03-27T04:31:10.805Z,1.05
2023-03-27T04:33:46.341Z,2.03
2023-03-27T04:36:21.063Z,1.67
2023-03-27T04:38:52.750Z,0.80
2023-03-27T04:41:22.616Z,1.10
2023-03-27T04:43:52.572Z,1.50
2023-03-27T04:46:22.926Z,1.63
2023-03-27T04:48:54.808Z,1.30
2023-03-27T04:51:43.275Z,1.20
2023-03-27T04:54:13.667Z,1.40
2023-03-27T04:56:46.448Z,1.30
2023-03-27T04:59:16.265Z,2.03
2023-03-27T05:01:47.543Z,2.00
2023-03-27T05:04:28.461Z,1.70
2023-03-27T05:07:10.078Z,1.60
2023-03-27T05:09:40.019Z,1.50
2023-03-27T05:12:11.387Z,1.45
2023-03-27T05:14:42.939Z,1.10
2023-03-27T05:17:15.261Z,1.20
2023-03-27T05:19:45.907Z,1.47
2023-03-27T05:22:16.324Z,1.57
2023-03-27T05:24:47.840Z,1.37
2023-03-27T05:27:18.161Z,1.50
2023-03-27T05:29:49.164Z,1.43
2023-03-27T05:32:18.808Z,1.43
2023-03-27T05:34:52.486Z,1.70
2023-03-27T05:37:24.573Z,1.67
2023-03-27T05:40:17.196Z,2.03
2023-03-27T05:42:47.456Z,1.50
2023-03-27T05:45:18.257Z,1.40
2023-03-27T05:47:53.369Z,1.70
2023-03-27T05:50:26.509Z,1.63
2023-03-27T05:53:03.968Z,2.05
2023-03-27T05:55:35.855Z,1.57
2023-03-27T05:58:10.178Z,1.88
2023-03-27T06:00:44.821Z,2.80
2023-03-27T06:03:16.290Z,2.40
2023-03-27T06:05:53.688Z,2.30
2023-03-27T06:08:23.401Z,1.63
2023-03-27T06:10:54.279Z,1.73
2023-03-27T06:13:26.012Z,2.00
2023-03-27T06:16:00.980Z,2.47
2023-03-27T06:18:51.123Z,2.47
2023-03-27T06:21:21.695Z,2.67
2023-03-27T06:23:54.365Z,3.13
2023-03-27T06:26:24.372Z,2.37
2023-03-27T06:28:55.228Z,2.80
2023-03-27T06:31:25.946Z,2.80
2023-03-27T06:34:15.204Z,2.44
2023-03-27T06:37:00.025Z,2.70
2023-03-27T06:39:30.514Z,2.80
2023-03-27T06:42:00.542Z,2.35
2023-03-27T06:44:32.613Z,2.23
2023-03-27T06:47:16.272Z,2.53
2023-03-27T06:49:48.585Z,3.07
2023-03-27T06:52:20.238Z,2.40
2023-03-27T06:54:50.195Z,2.53
2023-03-27T06:57:20.231Z,2.43
2023-03-27T06:59:52.295Z,3.13
2023-03-27T07:02:23.569Z,3.47
2023-03-27T07:05:04.973Z,3.08
2023-03-27T07:07:31.870Z,2.13
2023-03-27T07:10:01.972Z,1.70
2023-03-27T07:12:32.175Z,2.03
2023-03-27T07:15:02.449Z,2.47
2023-03-27T07:17:47.646Z,1.97
2023-03-27T07:20:07.382Z,1.80
2023-03-27T07:22:37.377Z,2.00
2023-03-27T07:25:09.190Z,2.37
2023-03-27T07:27:41.633Z,2.17
2023-03-27T07:30:13.407Z,2.00
2023-03-27T07:32:45.293Z,1.90
2023-03-27T07:35:15.422Z,1.87
2023-03-27T07:37:50.226Z,1.55
2023-03-27T07:40:36.971Z,2.13
2023-03-27T07:42:56.497Z,2.03
2023-03-27T07:45:26.107Z,1.72
2023-03-27T07:47:59.198Z,1.70
2023-03-27T07:50:29.876Z,1.50
2023-03-27T07:53:00.118Z,1.63
2023-03-27T07:55:30.347Z,1.73
2023-03-27T07:58:03.451Z,1.60
2023-03-27T08:00:38.833Z,1.80
2023-03-27T08:03:15.507Z,1.50
2023-03-27T08:05:56.182Z,1.63
2023-03-27T08:08:28.289Z,1.67
2023-03-27T08:11:00.513Z,1.47
2023-03-27T08:13:32.708Z,1.60
2023-03-27T08:16:17.511Z,1.54
2023-03-27T08:18:49.579Z,1.30
2023-03-27T08:21:20.098Z,0.90
2023-03-27T08:23:51.858Z,1.45
2023-03-27T08:26:36.232Z,1.43
2023-03-27T08:29:08.377Z,0.93
2023-03-27T08:31:39.291Z,1.10
2023-03-27T08:34:11.431Z,1.30
2023-03-27T08:36:45.805Z,1.00
2023-03-27T08:39:16.004Z,0.90
2023-03-27T08:41:55.179Z,0.97
2023-03-27T08:44:28.677Z,0.68
2023-03-27T08:47:22.357Z,0.80
2023-03-27T08:49:59.160Z,1.07
2023-03-27T08:52:36.077Z,0.77
2023-03-27T08:55:18.614Z,0.95
2023-03-27T08:57:56.317Z,0.80
2023-03-27T09:00:29.519Z,0.80
2023-03-27T09:03:15.954Z,0.63
2023-03-27T09:05:51.676Z,1.00
2023-03-27T09:13:52.956Z,0.82
2023-03-27T09:16:27.742Z,0.50
2023-03-27T09:19:25.164Z,0.70
2023-03-27T09:22:00.458Z,0.50
2023-03-27T09:24:44.566Z,0.50
2023-03-27T09:27:28.777Z,0.90
2023-03-27T09:30:15.349Z,0.83
2023-03-27T09:32:54.126Z,0.83
2023-03-27T09:35:24.094Z,0.67
2023-03-27T09:37:58.488Z,0.60
2023-03-27T09:40:33.999Z,0.55
2023-03-27T09:43:12.613Z,0.82
2023-03-27T09:45:44.032Z,0.70
2023-03-27T09:48:17.050Z,0.50
2023-03-27T09:50:49.324Z,0.70
2023-03-27T09:53:23.497Z,1.03
2023-03-27T09:56:06.302Z,0.70
2023-03-27T09:58:46.333Z,0.83
2023-03-27T10:01:34.945Z,0.93
2023-03-27T10:04:18.129Z,0.50
2023-03-27T10:06:53.549Z,0.60
2023-03-27T10:09:32.115Z,0.37
2023-03-27T10:12:07.211Z,0.50
2023-03-27T10:14:40.809Z,0.50
2023-03-27T10:17:26.023Z,0.60
2023-03-27T10:20:13.242Z,0.60
2023-03-27T10:22:45.670Z,0.50
2023-03-27T10:25:19.218Z,0.20
2023-03-27T10:27:52.566Z,0.40
2023-03-27T10:30:40.772Z,0.30
2023-03-27T10:33:12.940Z,0.45
2023-03-27T10:35:53.897Z,0.70
2023-03-27T10:38:32.620Z,0.35
2023-03-27T10:41:09.697Z,0.50
2023-03-27T10:43:44.500Z,0.87
2023-03-27T10:46:20.464Z,0.70
2023-03-27T10:49:08.363Z,0.80
2023-03-27T10:51:57.264Z,0.80
2023-03-27T10:54:37.552Z,0.47
2023-03-27T10:57:17.742Z,0.60
2023-03-27T11:00:22.491Z,0.60
2023-03-27T11:03:21.669Z,0.40
2023-03-27T11:05:54.324Z,0.83
2023-03-27T11:08:31.934Z,0.80
2023-03-27T11:11:08.349Z,0.50
2023-03-27T11:13:42.871Z,0.70
2023-03-27T11:19:06.010Z,0.75
2023-03-27T11:21:43.455Z,0.60
2023-03-27T11:24:34.830Z,0.33
2023-03-27T11:27:33.734Z,0.60
2023-03-27T11:30:22.061Z,0.80
2023-03-27T11:33:08.134Z,0.70
2023-03-27T11:35:46.948Z,0.87
2023-03-27T11:38:37.671Z,0.90
2023-03-27T11:41:15.142Z,1.17
2023-03-27T11:43:44.116Z,0.80
2023-03-27T11:46:24.030Z,0.70
2023-03-27T11:49:09.485Z,0.35
2023-03-27T11:51:57.617Z,0.30
2023-03-27T11:54:40.653Z,0.70
2023-03-27T11:57:18.142Z,0.33
2023-03-27T12:00:01.298Z,1.17
2023-03-27T12:02:45.348Z,0.43
2023-03-27T12:05:50.890Z,0.82
2023-03-27T12:08:32.701Z,0.60
2023-03-27T12:11:04.423Z,0.80
2023-03-27T12:13:42.515Z,0.90
2023-03-27T12:16:21.605Z,0.65
2023-03-27T12:19:06.001Z,0.62
2023-03-27T12:21:55.131Z,0.70
2023-03-27T12:24:30.650Z,0.67
2023-03-27T12:27:37.338Z,0.50
2023-03-27T12:30:33.901Z,0.88
2023-03-27T12:33:29.190Z,0.80
2023-03-27T12:36:01.930Z,0.93
2023-03-27T12:38:35.376Z,0.50
2023-03-27T12:41:08.647Z,0.73
2023-03-27T12:44:01.931Z,0.82
2023-03-27T12:46:36.473Z,1.00
2023-03-27T12:49:13.078Z,0.60
2023-03-27T12:51:57.970Z,0.93
2023-03-27T12:54:34.966Z,1.30
2023-03-27T12:57:22.912Z,1.00
2023-03-27T13:00:07.118Z,0.75
2023-03-27T13:03:02.584Z,1.17
2023-03-27T13:05:41.296Z,0.80
2023-03-27T13:08:23.391Z,0.80
2023-03-27T13:11:18.408Z,0.80
2023-03-27T13:14:23.046Z,1.37
2023-03-27T13:17:18.130Z,0.90
2023-03-27T13:20:04.621Z,0.70
2023-03-27T13:23:10.689Z,0.70
2023-03-27T13:26:02.115Z,1.15
2023-03-27T13:28:39.918Z,0.78
2023-03-27T13:31:15.111Z,1.60
2023-03-27T13:33:52.609Z,1.23
2023-03-27T13:36:24.765Z,1.05
2023-03-27T13:38:59.950Z,1.10
2023-03-27T13:41:47.836Z,0.60
2023-03-27T13:44:22.682Z,0.72
2023-03-27T13:46:58.766Z,0.80
2023-03-27T13:49:38.800Z,0.80
2023-03-27T13:52:31.593Z,0.90
2023-03-27T13:55:17.370Z,0.77
2023-03-27T13:58:06.900Z,1.33
2023-03-27T14:00:45.390Z,1.13
2023-03-27T14:03:45.421Z,0.77
2023-03-27T14:06:27.501Z,0.80
2023-03-27T14:09:35.361Z,0.73
2023-03-27T14:12:27.314Z,1.55
2023-03-27T14:15:08.016Z,0.83
2023-03-27T14:17:59.270Z,0.80
2023-03-27T14:20:47.657Z,0.57
2023-03-27T14:23:25.642Z,0.53
2023-03-27T14:26:08.524Z,0.70
2023-03-27T14:28:49.487Z,0.90
2023-03-27T14:31:22.043Z,0.80
2023-03-27T14:34:02.768Z,0.85
2023-03-27T14:36:35.911Z,0.57
2023-03-27T14:39:22.072Z,0.80
2023-03-27T14:41:57.196Z,1.07
2023-03-27T14:44:29.518Z,0.45
2023-03-27T14:47:12.049Z,0.50
2023-03-27T14:49:48.973Z,0.33
2023-03-27T14:52:26.741Z,0.67
2023-03-27T14:55:19.222Z,0.80
2023-03-27T14:57:55.587Z,0.53
2023-03-27T15:00:29.747Z,1.10
2023-03-27T15:03:03.794Z,1.00
2023-03-27T15:05:34.041Z,0.75
2023-03-27T15:08:06.495Z,0.80
2023-03-27T15:10:40.408Z,0.90
2023-03-27T15:13:17.499Z,0.70
2023-03-27T15:15:50.234Z,1.07
2023-03-27T15:18:32.726Z,1.07
2023-03-27T15:21:05.281Z,0.70
2023-03-27T15:23:44.071Z,1.10
2023-03-27T15:26:28.751Z,0.90
2023-03-27T15:29:23.109Z,0.53
2023-03-27T15:31:54.497Z,0.70
2023-03-27T15:34:43.330Z,0.73
2023-03-27T15:37:23.325Z,0.85
2023-03-27T15:40:06.813Z,0.60
2023-03-27T15:42:51.043Z,0.60
2023-03-27T15:45:23.625Z,0.47
2023-03-27T15:48:07.234Z,0.70
2023-03-27T15:50:38.099Z,0.43
2023-03-27T15:53:08.219Z,0.80
2023-03-27T15:55:43.227Z,0.70
2023-03-27T15:58:27.316Z,0.68
2023-03-27T16:01:02.836Z,0.90
2023-03-27T16:03:35.896Z,0.72
2023-03-27T16:06:06.429Z,0.70
2023-03-27T16:08:41.990Z,0.90
2023-03-27T16:11:12.861Z,0.50
2023-03-27T16:13:56.815Z,0.87
2023-03-27T16:16:29.291Z,1.40
2023-03-27T16:19:04.701Z,1.00
2023-03-27T16:21:36.155Z,1.03
2023-03-27T16:24:06.589Z,1.07
2023-03-27T16:26:36.477Z,1.20
2023-03-27T16:29:07.043Z,0.77
2023-03-27T16:31:36.915Z,1.30
2023-03-27T16:34:12.549Z,0.97
2023-03-27T16:36:44.444Z,0.90
2023-03-27T16:39:14.305Z,1.60
2023-03-27T16:41:44.782Z,1.00
2023-03-27T16:44:16.270Z,0.78
2023-03-27T16:46:46.850Z,0.93
2023-03-27T16:49:16.716Z,1.10
2023-03-27T16:51:46.515Z,1.00
2023-03-27T16:54:16.236Z,1.03
2023-03-27T16:56:46.140Z,0.80
2023-03-27T16:59:16.434Z,1.57
2023-03-27T17:01:46.899Z,1.62
2023-03-27T17:04:16.965Z,1.20
2023-03-27T17:06:46.795Z,0.90
2023-03-27T17:09:16.406Z,1.00
2023-03-27T17:11:46.107Z,1.15
2023-03-27T17:14:16.703Z,1.30
2023-03-27T17:16:47.478Z,1.07
2023-03-27T17:19:17.742Z,0.93
2023-03-27T17:21:47.652Z,1.00
2023-03-27T17:24:18.996Z,1.12
2023-03-27T17:26:49.124Z,1.98
2023-03-27T17:29:19.006Z,0.80
2023-03-27T17:31:49.156Z,1.00
2023-03-27T17:34:19.703Z,0.90
2023-03-27T17:36:54.584Z,0.80
2023-03-27T17:39:21.064Z,1.00
2023-03-27T17:41:50.983Z,1.23
2023-03-27T17:44:21.269Z,1.02
2023-03-27T17:46:51.523Z,1.20
2023-03-27T17:49:21.799Z,0.60
2023-03-27T17:51:51.702Z,0.90
2023-03-27T17:54:21.773Z,1.20
2023-03-27T17:56:53.218Z,1.10
2023-03-27T17:59:23.033Z,1.17
2023-03-27T18:01:52.918Z,0.87
2023-03-27T18:04:23.277Z,0.82
2023-03-27T18:06:53.513Z,0.80
2023-03-27T18:09:23.604Z,1.15
2023-03-27T18:11:53.457Z,1.05
2023-03-27T18:14:23.577Z,1.00
2023-03-27T18:16:55.808Z,0.90
2023-03-27T18:19:25.925Z,1.25
2023-03-27T18:21:55.856Z,0.80
2023-03-27T18:24:26.196Z,1.50
2023-03-27T18:26:56.266Z,1.03
2023-03-27T18:29:26.459Z,1.00
2023-03-27T18:31:56.404Z,1.23
2023-03-27T18:34:27.124Z,1.10
2023-03-27T18:36:56.961Z,0.90
2023-03-27T18:39:27.306Z,1.00
2023-03-27T18:41:59.242Z,1.23
2023-03-27T18:44:29.376Z,1.10
2023-03-27T18:46:59.198Z,1.70
2023-03-27T18:49:29.303Z,1.60
2023-03-27T18:51:58.847Z,1.35
2023-03-27T18:54:28.957Z,1.52
2023-03-27T18:56:58.994Z,1.40
2023-03-27T18:59:29.114Z,1.35
2023-03-27T19:01:59.382Z,1.17
2023-03-27T19:04:29.519Z,1.37
2023-03-27T19:06:59.341Z,1.60
2023-03-27T19:09:41.039Z,1.57
2023-03-27T19:12:00.703Z,1.32
2023-03-27T19:14:48.805Z,1.45
2023-03-27T19:17:32.179Z,1.33
2023-03-27T19:23:19.151Z,1.30
2023-03-27T19:25:51.209Z,1.20
2023-03-27T19:28:21.921Z,1.20
2023-03-27T19:30:53.174Z,1.23
2023-03-27T19:33:23.053Z,1.00
2023-03-27T19:35:54.460Z,1.40
2023-03-27T19:38:23.968Z,2.00
2023-03-27T19:40:54.242Z,2.83
2023-03-27T19:43:24.365Z,1.67
2023-03-27T19:46:08.227Z,1.43
2023-03-27T19:48:27.663Z,1.60
2023-03-27T19:51:04.365Z,1.75
2023-03-27T19:53:36.464Z,1.40
2023-03-27T19:56:06.537Z,1.93
2023-03-27T19:58:38.265Z,1.25
2023-03-27T20:01:08.570Z,1.10
2023-03-27T20:03:40.091Z,1.40
2023-03-27T20:06:14.282Z,1.10
2023-03-27T20:08:42.384Z,1.90
2023-03-27T20:11:13.925Z,2.33
2023-03-27T20:13:55.614Z,2.20
2023-03-27T20:16:17.773Z,1.80
2023-03-27T20:18:50.578Z,2.02
2023-03-27T20:21:20.395Z,2.20
2023-03-27T20:23:51.567Z,2.15
2023-03-27T20:26:24.007Z,2.30
2023-03-27T20:28:56.067Z,2.45
2023-03-27T20:31:26.247Z,2.95
2023-03-27T20:33:56.824Z,1.83
2023-03-27T20:36:26.458Z,2.57
2023-03-27T20:38:56.569Z,2.93
2023-03-27T20:41:27.018Z,2.37
2023-03-27T20:43:58.574Z,1.90
2023-03-27T20:46:32.941Z,1.75
2023-03-27T20:49:03.498Z,1.90
2023-03-27T20:51:33.453Z,2.10
2023-03-27T20:54:04.888Z,1.77
2023-03-27T20:56:34.713Z,1.87
2023-03-27T20:59:04.517Z,1.63
2023-03-27T21:01:36.354Z,1.52
2023-03-27T21:04:06.928Z,2.03
2023-03-27T21:06:36.771Z,1.90
2023-03-27T21:09:09.176Z,1.85
2023-03-27T21:11:39.011Z,1.73
2023-03-27T21:14:08.964Z,1.87
2023-03-27T21:16:39.177Z,2.65
2023-03-27T21:19:10.204Z,2.30
2023-03-27T21:21:40.468Z,1.90
2023-03-27T21:24:11.597Z,1.78
2023-03-27T21:26:41.554Z,1.70
2023-03-27T21:29:11.797Z,1.50
2023-03-27T21:31:42.132Z,1.70
2023-03-27T21:34:11.823Z,2.40
2023-03-27T21:36:41.694Z,1.50
2023-03-27T21:39:11.934Z,2.43
2023-03-27T21:41:42.169Z,1.75
2023-03-27T21:44:11.716Z,2.20
2023-03-27T21:46:41.934Z,2.10
2023-03-27T21:49:11.806Z,2.17
2023-03-27T21:51:41.626Z,2.40
2023-03-27T21:54:11.740Z,2.52
2023-03-27T21:56:41.589Z,2.60
2023-03-27T21:59:11.514Z,2.20
2023-03-27T22:01:41.424Z,2.90
2023-03-27T22:04:11.870Z,2.27
2023-03-27T22:06:43.528Z,2.50
2023-03-27T22:09:13.728Z,2.60
2023-03-27T22:11:43.582Z,2.63
2023-03-27T22:14:16.168Z,2.85
2023-03-27T22:16:46.133Z,2.10
2023-03-27T22:19:16.332Z,1.80
2023-03-27T22:21:46.121Z,2.30
2023-03-27T22:24:16.833Z,2.65
2023-03-27T22:26:46.598Z,1.93
2023-03-27T22:29:16.546Z,1.63
2023-03-27T22:31:46.844Z,1.97
2023-03-27T22:34:17.617Z,2.20
2023-03-27T22:36:47.449Z,2.37
2023-03-27T22:39:17.280Z,1.87
2023-03-27T22:41:47.090Z,2.13
2023-03-27T22:44:18.524Z,2.22
2023-03-27T22:46:48.574Z,2.80
2023-03-27T22:49:18.400Z,2.77
2023-03-27T22:51:48.542Z,2.27
2023-03-27T22:54:19.033Z,2.50
2023-03-27T22:56:49.054Z,2.25
2023-03-27T22:59:18.581Z,2.50
2023-03-27T23:01:48.598Z,2.77
2023-03-27T23:04:18.341Z,2.80
2023-03-27T23:06:48.559Z,2.43
2023-03-27T23:09:19.094Z,2.47
2023-03-27T23:11:49.097Z,2.67
2023-03-27T23:14:19.297Z,2.38
2023-03-27T23:16:49.164Z,2.63
2023-03-27T23:19:19.061Z,2.80
2023-03-27T23:21:48.917Z,2.37
2023-03-27T23:24:18.415Z,2.80
2023-03-27T23:26:48.320Z,2.37
2023-03-27T23:29:20.832Z,2.60
2023-03-27T23:31:50.745Z,3.27
2023-03-27T23:34:20.316Z,2.30
2023-03-27T23:36:50.204Z,2.40
2023-03-27T23:39:20.035Z,2.10
2023-03-27T23:41:49.849Z,2.47
2023-03-27T23:44:20.075Z,2.97
2023-03-27T23:46:49.895Z,2.77
2023-03-27T23:49:19.774Z,2.03
2023-03-27T23:51:49.594Z,2.50
2023-03-27T23:54:19.156Z,2.80
2023-03-27T23:56:48.964Z,2.80
2023-03-27T23:59:18.904Z,3.17
